Pebble Beach, California
Current Conditions -  °F | °C
As of 9:54 PM on Friday 28 Nov 2014 (Local Time) from KMRY Reporting Station
Clear Clear  
Wind Chill: 52°   Ceiling: Unl
Heat Index: 52°   Visibility: 10mi
Dew Point: 48°   Wind: 7mph
Humidity: 86%   Direction: 90°E
Pressure: 29.92"   Gusts: NA
Location:  36.57°N, 121.95°W
Report Text: KMRY 290554Z AUTO 09006KT 10SM CLR 11/09 A2992 RMK AO2 SLP143 T01110089 10156 20100 51002
Loading
Personal Weather Stations






























Interactive Weather Map New forecast layout! Learn more

10-Day Weather Forecast

Advertisements
Track Severe Weather on mobile